Hingham, Montana
Current Conditions -  °F | °C
As of 11:53 AM on Friday 24 Oct 2014 (Local Time) from KHVR Reporting Station
Clear Clear  
Wind Chill: 54°   Ceiling: Unl
Heat Index: 54°   Visibility: 10mi
Dew Point: 30°   Wind: 18mph
Humidity: 40%   Direction: 240°WSW
Pressure: 30.01"   Gusts: NA
Location:  48.55°N, 110.42°W
Report Text: KHVR 241753Z AUTO 24016KT 10SM CLR 12/M01 A3001 RMK AO2 SLP163 T01221011 10122 20050 51014
Loading
Personal Weather Stations






























Interactive Weather Map New forecast layout! Learn more

10-Day Weather Forecast

Advertisements
Track Severe Weather on mobile